Monday, March 30, 2015, 12:12 PM EDT

KSBY, Salisbury-wicomico Cty Reg

Location: Salisbury, MD, United States Lat: 38.333
Local Time: 12:12 PM EDT (16:12 GMT) Lon: -75.5
Time Zone: US/Eastern Elev: 52 ft

Show me the last for .
Show Decoded

2015-03-30 11:54 METAR KSBY 301554Z 23010G20KT 10SM OVC060 07/02 A2993 RMK AO2 SLP139 T00720017 =
2015-03-30 10:54 METAR KSBY 301454Z 22011G19KT 10SM BKN055 OVC070 06/02 A2996 RMK AO2 RAB04E30
                 SLP148 P0000 60004 T00560017 56013 =
2015-03-30 09:54 METAR KSBY 301354Z 21012KT 10SM OVC065 04/01 A2997 RMK AO2 RAE47 SLP151 P0001
                 T00390011 =
2015-03-30 08:54 METAR KSBY 301254Z 20011KT 10SM -RA BKN060 OVC075 03/01 A2998 RMK AO2 SLP156
                 P0003 T00330011 $ =
2015-03-30 06:54 METAR KSBY 301054Z 21014KT 10SM OVC060 06/M04 A3001 =
2015-03-30 05:54 METAR KSBY 300954Z AUTO 19011KT 10SM BKN085 OVC100 05/M05 A3003 RMK AO2 SLP172
                 T00501050 $ =
2015-03-30 04:54 METAR KSBY 300854Z AUTO 17007KT 10SM SCT095 BKN120 04/M04 A3004 =
2015-03-30 03:54 METAR KSBY 300754Z AUTO 19007KT 10SM BKN080 OVC100 02/M04 A3009 RMK AO2 SLP192
                 T00221039 $ =
2015-03-30 02:54 METAR KSBY 300654Z AUTO 18005KT 10SM BKN110 02/M04 A3012 =
2015-03-30 01:54 METAR KSBY 300554Z AUTO 17007KT 10SM CLR 01/M06 A3014 RMK AO2 SLP210 T00061056
                 10011 21017 58025 $ =
2015-03-30 00:54 METAR KSBY 300454Z AUTO 19008KT 10SM CLR 00/M07 A3019 RMK AO2 SLP226 T00001067
                 400611044 $ =
2015-03-29 23:54 METAR KSBY 300354Z AUTO 17004KT 10SM CLR M01/M09 A3020 RMK AO2 SLP228 T10111089
                 $ =
2015-03-29 22:54 METAR KSBY 300254Z AUTO 18004KT 10SM CLR M01/M09 A3022 RMK AO2 SLP235 T10111094
                 58009 $ =
2015-03-29 21:54 METAR KSBY 300154Z 19004KT 10SM CLR M01/M08 A3023 =
2015-03-29 20:54 METAR KSBY 300054Z 00000KT 10SM CLR M01/M07 A3024 RMK AO2 SLP244 T10111072 $ =
2015-03-29 19:54 METAR KSBY 292354Z 20006KT 10SM CLR 01/M08 A3025 RMK AO2 SLP245 T00111078 10061
                 20011 58007 $ =
2015-03-29 18:54 METAR KSBY 292254Z 26008KT 10SM CLR 04/M13 A3026 RMK AO2 SLP251 T00441128 $ =
2015-03-29 17:54 METAR KSBY 292154Z 29008KT 10SM CLR 06/M14 A3027 =
2015-03-29 16:54 METAR KSBY 292054Z 28004KT 10SM CLR 06/M12 A3027 RMK AO2 SLP252 T00561117 58016
                 =
2015-03-29 15:54 METAR KSBY 291954Z 33011G18KT 10SM CLR 06/M10 A3029 RMK AO2 SLP260 T00611100 =
2015-03-29 14:54 METAR KSBY 291854Z AUTO 30009G18KT 10SM CLR 05/M11 A3030 RMK AO2 SLP262
                 T00501111 =
2015-03-29 13:54 METAR KSBY 291754Z 29012G20KT 10SM CLR 04/M12 A3032 RMK AO2 SLP268 T00441117
                 10044 21022 58012 =
2015-03-29 12:54 METAR KSBY 291654Z 32013G19KT 10SM CLR 04/M11 A3034 RMK AO2 SLP276 T00391111 =

Support USWX by starting your Amazon purchase here.